sensor_id;sensor_type;location;lat;lon;timestamp;temperature;humidity
12845;DHT22;6489;48.508;9.206;2022-12-05T02:17:50;2.90;1.00
12845;DHT22;6489;48.508;9.206;2022-12-05T02:21:44;2.90;1.00
12845;DHT22;6489;48.508;9.206;2022-12-05T02:28:57;2.80;1.00
12845;DHT22;6489;48.508;9.206;2022-12-05T02:32:34;2.90;1.00
12845;DHT22;6489;48.508;9.206;2022-12-05T02:36:02;3.30;1.00
12845;DHT22;6489;48.508;9.206;2022-12-05T02:39:32;3.30;1.00
12845;DHT22;6489;48.508;9.206;2022-12-05T02:42:59;3.30;1.00
12845;DHT22;6489;48.508;9.206;2022-12-05T02:46:25;3.40;1.00
12845;DHT22;6489;48.508;9.206;2022-12-05T02:49:50;3.00;1.00
12845;DHT22;6489;48.508;9.206;2022-12-05T02:53:14;3.30;84.60
12845;DHT22;6489;48.508;9.206;2022-12-05T02:59:59;3.90;1.00
12845;DHT22;6489;48.508;9.206;2022-12-05T03:03:21;3.10;1.00
12845;DHT22;6489;48.508;9.206;2022-12-05T03:06:48;3.40;1.00
12845;DHT22;6489;48.508;9.206;2022-12-05T03:10:13;3.30;1.00
12845;DHT22;6489;48.508;9.206;2022-12-05T03:13:39;2.80;1.00
12845;DHT22;6489;48.508;9.206;2022-12-05T03:17:06;3.40;1.00
12845;DHT22;6489;48.508;9.206;2022-12-05T03:24:00;3.60;1.00
12845;DHT22;6489;48.508;9.206;2022-12-05T03:27:26;3.90;1.00
12845;DHT22;6489;48.508;9.206;2022-12-05T03:30:50;3.30;1.00
12845;DHT22;6489;48.508;9.206;2022-12-05T03:34:17;3.40;1.00
12845;DHT22;6489;48.508;9.206;2022-12-05T03:37:45;3.00;1.00
12845;DHT22;6489;48.508;9.206;2022-12-05T03:41:15;3.30;1.00
12845;DHT22;6489;48.508;9.206;2022-12-05T03:44:46;3.40;99.90
12845;DHT22;6489;48.508;9.206;2022-12-05T03:48:13;3.20;1.00
12845;DHT22;6489;48.508;9.206;2022-12-05T03:51:44;3.20;1.00
12845;DHT22;6489;48.508;9.206;2022-12-05T03:55:08;3.30;1.00
12845;DHT22;6489;48.508;9.206;2022-12-05T03:58:38;2.90;1.00
12845;DHT22;6489;48.508;9.206;2022-12-05T04:02:05;3.50;1.00
12845;DHT22;6489;48.508;9.206;2022-12-05T04:05:31;3.00;1.00
12845;DHT22;6489;48.508;9.206;2022-12-05T04:08:58;2.80;1.00
12845;DHT22;6489;48.508;9.206;2022-12-05T04:12:25;3.00;1.00
12845;DHT22;6489;48.508;9.206;2022-12-05T04:15:53;2.90;1.00
12845;DHT22;6489;48.508;9.206;2022-12-05T04:19:39;3.40;1.00
12845;DHT22;6489;48.508;9.206;2022-12-05T04:26:44;2.70;1.00
12845;DHT22;6489;48.508;9.206;2022-12-05T04:33:36;2.80;1.00
12845;DHT22;6489;48.508;9.206;2022-12-05T04:37:01;2.90;1.00
12845;DHT22;6489;48.508;9.206;2022-12-05T04:40:29;2.70;1.00
12845;DHT22;6489;48.508;9.206;2022-12-05T04:43:56;2.60;1.00
12845;DHT22;6489;48.508;9.206;2022-12-05T04:47:22;2.60;1.00
12845;DHT22;6489;48.508;9.206;2022-12-05T04:54:14;2.40;1.00
12845;DHT22;6489;48.508;9.206;2022-12-05T05:07:54;2.20;1.00
12845;DHT22;6489;48.508;9.206;2022-12-05T05:11:18;1.80;1.00
12845;DHT22;6489;48.508;9.206;2022-12-05T05:14:40;2.80;99.90
12845;DHT22;6489;48.508;9.206;2022-12-05T05:21:25;2.40;1.00
12845;DHT22;6489;48.508;9.206;2022-12-05T05:28:11;2.30;1.00
12845;DHT22;6489;48.508;9.206;2022-12-05T05:31:33;2.50;1.00
12845;DHT22;6489;48.508;9.206;2022-12-05T05:34:55;2.30;1.00
12845;DHT22;6489;48.508;9.206;2022-12-05T05:38:17;2.80;1.00
12845;DHT22;6489;48.508;9.206;2022-12-05T05:41:40;2.80;1.00
12845;DHT22;6489;48.508;9.206;2022-12-05T05:45:03;2.40;1.00
12845;DHT22;6489;48.508;9.206;2022-12-05T05:51:47;3.00;1.00
12845;DHT22;6489;48.508;9.206;2022-12-05T05:55:09;2.50;1.00
12845;DHT22;6489;48.508;9.206;2022-12-05T05:58:32;2.30;1.00
12845;DHT22;6489;48.508;9.206;2022-12-05T06:01:54;2.50;1.00
12845;DHT22;6489;48.508;9.206;2022-12-05T06:05:16;2.70;1.00
12845;DHT22;6489;48.508;9.206;2022-12-05T06:08:40;2.70;1.00
12845;DHT22;6489;48.508;9.206;2022-12-05T06:12:02;2.60;1.00
12845;DHT22;6489;48.508;9.206;2022-12-05T06:15:26;2.40;1.00
12845;DHT22;6489;48.508;9.206;2022-12-05T06:22:10;2.70;1.00
12845;DHT22;6489;48.508;9.206;2022-12-05T06:25:32;3.00;1.00
12845;DHT22;6489;48.508;9.206;2022-12-05T06:28:53;2.70;1.00
12845;DHT22;6489;48.508;9.206;2022-12-05T06:32:17;3.30;1.00
12845;DHT22;6489;48.508;9.206;2022-12-05T06:35:39;3.10;1.00
12845;DHT22;6489;48.508;9.206;2022-12-05T06:39:00;3.10;1.00
12845;DHT22;6489;48.508;9.206;2022-12-05T06:45:44;2.50;1.00
12845;DHT22;6489;48.508;9.206;2022-12-05T06:49:09;2.70;1.00
12845;DHT22;6489;48.508;9.206;2022-12-05T06:52:31;2.60;1.00
12845;DHT22;6489;48.508;9.206;2022-12-05T06:55:57;2.70;1.00
12845;DHT22;6489;48.508;9.206;2022-12-05T06:59:19;3.00;1.00
12845;DHT22;6489;48.508;9.206;2022-12-05T07:06:05;2.90;1.00
12845;DHT22;6489;48.508;9.206;2022-12-05T07:09:27;2.60;1.00
12845;DHT22;6489;48.508;9.206;2022-12-05T07:13:03;2.80;1.00
12845;DHT22;6489;48.508;9.206;2022-12-05T07:16:25;2.80;1.00
12845;DHT22;6489;48.508;9.206;2022-12-05T07:19:47;3.00;1.00
12845;DHT22;6489;48.508;9.206;2022-12-05T07:23:11;3.00;1.00
12845;DHT22;6489;48.508;9.206;2022-12-05T07:36:39;3.30;1.00
12845;DHT22;6489;48.508;9.206;2022-12-05T07:40:03;2.90;1.00
12845;DHT22;6489;48.508;9.206;2022-12-05T07:43:25;3.60;1.00
12845;DHT22;6489;48.508;9.206;2022-12-05T07:46:47;3.80;1.00
12845;DHT22;6489;48.508;9.206;2022-12-05T07:53:31;3.60;1.00
12845;DHT22;6489;48.508;9.206;2022-12-05T07:56:55;3.10;1.00
12845;DHT22;6489;48.508;9.206;2022-12-05T08:00:18;3.70;1.00
12845;DHT22;6489;48.508;9.206;2022-12-05T08:10:24;3.60;1.00
12845;DHT22;6489;48.508;9.206;2022-12-05T08:17:10;4.30;1.00
12845;DHT22;6489;48.508;9.206;2022-12-05T08:20:32;4.50;1.00
12845;DHT22;6489;48.508;9.206;2022-12-05T08:23:54;4.30;1.00
12845;DHT22;6489;48.508;9.206;2022-12-05T08:27:16;4.70;1.00
12845;DHT22;6489;48.508;9.206;2022-12-05T08:34:01;4.60;1.00
12845;DHT22;6489;48.508;9.206;2022-12-05T08:37:23;4.90;99.90
12845;DHT22;6489;48.508;9.206;2022-12-05T08:40:45;5.40;1.00
12845;DHT22;6489;48.508;9.206;2022-12-05T08:44:10;4.90;1.00
12845;DHT22;6489;48.508;9.206;2022-12-05T08:57:48;5.40;99.90
12845;DHT22;6489;48.508;9.206;2022-12-05T09:01:12;5.70;99.90
12845;DHT22;6489;48.508;9.206;2022-12-05T09:07:58;5.10;99.90
12845;DHT22;6489;48.508;9.206;2022-12-05T09:11:21;5.40;99.90
12845;DHT22;6489;48.508;9.206;2022-12-05T09:14:44;6.10;99.90
12845;DHT22;6489;48.508;9.206;2022-12-05T09:18:05;5.20;31.70
12845;DHT22;6489;48.508;9.206;2022-12-05T09:28:14;5.10;99.90
12845;DHT22;6489;48.508;9.206;2022-12-05T09:31:35;5.50;99.90
12845;DHT22;6489;48.508;9.206;2022-12-05T09:34:59;5.50;99.90
12845;DHT22;6489;48.508;9.206;2022-12-05T09:38:22;5.50;1.00
12845;DHT22;6489;48.508;9.206;2022-12-05T09:41:53;6.00;99.90
12845;DHT22;6489;48.508;9.206;2022-12-05T09:45:28;5.60;1.00
12845;DHT22;6489;48.508;9.206;2022-12-05T09:48:55;5.50;99.90
12845;DHT22;6489;48.508;9.206;2022-12-05T09:52:23;5.50;1.00
12845;DHT22;6489;48.508;9.206;2022-12-05T10:02:45;5.60;1.00
12845;DHT22;6489;48.508;9.206;2022-12-05T10:06:12;5.50;1.00
12845;DHT22;6489;48.508;9.206;2022-12-05T10:09:53;5.50;1.00
12845;DHT22;6489;48.508;9.206;2022-12-05T10:13:36;5.60;1.00
12845;DHT22;6489;48.508;9.206;2022-12-05T10:17:07;5.60;99.90
12845;DHT22;6489;48.508;9.206;2022-12-05T10:20:33;5.00;99.90
12845;DHT22;6489;48.508;9.206;2022-12-05T10:23:58;5.90;99.90
12845;DHT22;6489;48.508;9.206;2022-12-05T10:27:29;5.50;1.00
12845;DHT22;6489;48.508;9.206;2022-12-05T10:30:55;5.50;1.00
12845;DHT22;6489;48.508;9.206;2022-12-05T10:34:27;5.50;1.00
12845;DHT22;6489;48.508;9.206;2022-12-05T10:37:52;5.50;99.90
12845;DHT22;6489;48.508;9.206;2022-12-05T10:41:14;5.40;99.90
12845;DHT22;6489;48.508;9.206;2022-12-05T10:48:00;5.50;99.90
12845;DHT22;6489;48.508;9.206;2022-12-05T10:51:26;5.60;1.00
12845;DHT22;6489;48.508;9.206;2022-12-05T10:58:14;5.50;99.90
